createdAt,value
2023-03-21T00:00:40.582Z,49.65
2023-03-21T00:03:07.420Z,49.83
2023-03-21T00:05:33.956Z,50.02
2023-03-21T00:08:02.374Z,49.72
2023-03-21T00:10:39.894Z,49.92
2023-03-21T00:13:08.798Z,50.00
2023-03-21T00:16:01.903Z,50.01
2023-03-21T00:18:31.747Z,49.88
2023-03-21T00:21:33.771Z,49.95
2023-03-21T00:23:50.360Z,50.11
2023-03-21T00:26:17.238Z,49.98
2023-03-21T00:28:43.931Z,49.96
2023-03-21T00:31:11.124Z,49.85
2023-03-21T00:33:39.157Z,50.04
2023-03-21T00:36:07.260Z,50.17
2023-03-21T00:38:34.392Z,50.17
2023-03-21T00:41:11.008Z,50.04
2023-03-21T00:43:44.087Z,50.05
2023-03-21T00:46:10.654Z,50.17
2023-03-21T00:48:37.242Z,49.95
2023-03-21T00:51:13.385Z,49.98
2023-03-21T00:53:39.891Z,49.99
2023-03-21T00:56:06.620Z,50.01
2023-03-21T00:58:33.087Z,50.09
2023-03-21T01:01:02.657Z,50.07
2023-03-21T01:03:29.222Z,49.89
2023-03-21T01:06:07.754Z,50.04
2023-03-21T01:08:53.573Z,50.08
2023-03-21T01:11:24.604Z,49.92
2023-03-21T01:13:57.931Z,49.99
2023-03-21T01:16:31.528Z,49.91
2023-03-21T01:18:58.271Z,50.10
2023-03-21T01:21:24.811Z,49.93
2023-03-21T01:23:51.469Z,49.96
2023-03-21T01:26:17.990Z,49.94
2023-03-21T01:28:45.617Z,50.07
2023-03-21T01:31:14.239Z,50.00
2023-03-21T01:33:41.412Z,50.34
2023-03-21T01:36:13.178Z,49.92
2023-03-21T01:38:42.338Z,49.98
2023-03-21T01:41:36.742Z,49.84
2023-03-21T01:44:18.271Z,49.86
2023-03-21T01:46:57.374Z,49.78
2023-03-21T01:49:38.720Z,49.60
2023-03-21T01:52:13.014Z,49.59
2023-03-21T01:54:44.135Z,49.50
2023-03-21T01:57:22.556Z,49.56
2023-03-21T01:59:52.572Z,49.58
2023-03-21T02:02:25.406Z,49.39
2023-03-21T02:04:58.311Z,49.42
2023-03-21T02:07:29.346Z,49.78
2023-03-21T02:09:56.424Z,49.44
2023-03-21T02:12:23.302Z,49.77
2023-03-21T02:14:51.786Z,49.70
2023-03-21T02:17:31.162Z,49.70
2023-03-21T02:20:31.431Z,49.94
2023-03-21T02:23:23.475Z,50.02
2023-03-21T02:26:41.174Z,49.90
2023-03-21T02:29:22.689Z,49.96
2023-03-21T02:32:00.898Z,50.08
2023-03-21T02:35:00.364Z,49.96
2023-03-21T02:37:38.328Z,50.19
2023-03-21T02:40:27.107Z,50.07
2023-03-21T02:43:01.116Z,49.87
2023-03-21T02:45:42.452Z,50.02
2023-03-21T02:48:27.650Z,50.16
2023-03-21T02:51:00.654Z,49.92
2023-03-21T02:53:32.612Z,50.04
2023-03-21T02:56:01.240Z,50.03
2023-03-21T02:58:30.587Z,49.99
2023-03-21T03:00:57.686Z,50.04
2023-03-21T03:03:34.120Z,50.09
2023-03-21T03:06:03.763Z,49.72
2023-03-21T03:08:47.607Z,50.17
2023-03-21T03:11:29.663Z,50.21
2023-03-21T03:14:21.184Z,50.02
2023-03-21T03:17:17.314Z,50.24
2023-03-21T03:20:04.336Z,50.30
2023-03-21T03:22:46.525Z,50.25
2023-03-21T03:25:25.005Z,50.24
2023-03-21T03:27:57.952Z,50.07
2023-03-21T03:30:35.475Z,50.04
2023-03-21T03:33:10.871Z,50.06
2023-03-21T03:35:37.688Z,50.32
2023-03-21T03:38:07.687Z,50.27
2023-03-21T03:40:41.935Z,50.05
2023-03-21T03:43:18.512Z,50.16
2023-03-21T03:45:50.572Z,50.23
2023-03-21T03:48:25.340Z,50.06
2023-03-21T03:51:24.089Z,50.07
2023-03-21T03:54:00.681Z,50.26
2023-03-21T03:56:28.795Z,50.32
2023-03-21T03:58:57.191Z,50.01
2023-03-21T04:01:24.216Z,50.27
2023-03-21T04:03:56.445Z,50.23
2023-03-21T04:06:30.318Z,50.37
2023-03-21T04:08:57.223Z,50.28
2023-03-21T04:11:23.771Z,50.33
2023-03-21T04:13:50.430Z,50.21
2023-03-21T04:16:17.186Z,50.29
2023-03-21T04:18:43.702Z,50.16
2023-03-21T04:21:12.847Z,50.31
2023-03-21T04:23:40.384Z,50.01
2023-03-21T04:26:07.768Z,50.16
2023-03-21T04:28:36.096Z,50.09
2023-03-21T04:31:15.986Z,49.90
2023-03-21T04:33:50.036Z,49.99
2023-03-21T04:36:24.924Z,49.82
2023-03-21T04:38:52.500Z,49.82
2023-03-21T04:41:19.239Z,49.88
2023-03-21T04:43:45.931Z,50.18
2023-03-21T04:46:12.524Z,50.03
2023-03-21T04:48:39.039Z,50.08
2023-03-21T04:51:05.885Z,49.98
2023-03-21T04:53:32.615Z,50.22
2023-03-21T04:55:59.138Z,49.97
2023-03-21T04:58:25.648Z,49.99
2023-03-21T05:00:53.131Z,50.21
2023-03-21T05:03:21.933Z,50.10
2023-03-21T05:05:48.577Z,50.20
2023-03-21T05:08:15.871Z,50.31
2023-03-21T05:10:42.989Z,50.38
2023-03-21T05:13:09.560Z,50.23
2023-03-21T05:15:36.222Z,50.43
2023-03-21T05:18:10.402Z,50.37
2023-03-21T05:20:38.085Z,50.28
2023-03-21T05:23:04.603Z,50.35
2023-03-21T05:25:35.486Z,50.35
2023-03-21T05:28:04.192Z,50.18
2023-03-21T05:30:30.947Z,50.44
2023-03-21T05:32:57.480Z,50.27
2023-03-21T05:35:26.700Z,50.40
2023-03-21T05:37:53.436Z,50.44
2023-03-21T05:40:20.382Z,50.36
2023-03-21T05:42:47.967Z,50.59
2023-03-21T05:45:15.774Z,50.56
2023-03-21T05:47:42.349Z,50.47
2023-03-21T05:50:10.314Z,50.54
2023-03-21T05:52:37.335Z,50.52
2023-03-21T05:55:04.150Z,50.76
2023-03-21T05:57:33.045Z,50.56
2023-03-21T05:59:59.532Z,50.41
2023-03-21T06:02:26.074Z,50.43
2023-03-21T06:04:52.575Z,50.70
2023-03-21T06:07:19.274Z,50.60
2023-03-21T06:09:45.838Z,50.62
2023-03-21T06:12:14.290Z,50.64
2023-03-21T06:14:40.831Z,50.60
2023-03-21T06:17:07.316Z,50.59
2023-03-21T06:19:33.865Z,50.43
2023-03-21T06:22:00.428Z,50.52
2023-03-21T06:24:27.334Z,50.44
2023-03-21T06:26:53.922Z,50.69
2023-03-21T06:29:20.426Z,50.79
2023-03-21T06:31:47.059Z,50.78
2023-03-21T06:34:13.809Z,50.59
2023-03-21T06:36:41.063Z,50.69
2023-03-21T06:39:08.726Z,50.57
2023-03-21T06:41:35.329Z,50.85
2023-03-21T06:44:02.469Z,50.65
2023-03-21T06:46:29.137Z,50.65
2023-03-21T06:48:55.661Z,50.63
2023-03-21T06:51:22.160Z,50.74
2023-03-21T06:53:48.733Z,50.64
2023-03-21T06:56:15.983Z,50.77
2023-03-21T06:58:43.002Z,50.49
2023-03-21T07:01:09.597Z,50.47
2023-03-21T07:03:37.662Z,50.94
2023-03-21T07:06:07.197Z,50.29
2023-03-21T07:08:33.671Z,50.44
2023-03-21T07:11:00.196Z,50.45
2023-03-21T07:13:26.703Z,50.49
2023-03-21T07:15:54.254Z,50.25
2023-03-21T07:18:21.320Z,50.42
2023-03-21T07:20:51.911Z,50.62
2023-03-21T07:23:23.266Z,50.28
2023-03-21T07:25:51.019Z,50.49
2023-03-21T07:28:18.937Z,50.43
2023-03-21T07:30:51.295Z,50.18
2023-03-21T07:33:17.769Z,50.22
2023-03-21T07:35:44.297Z,49.96
2023-03-21T07:38:10.924Z,50.05
2023-03-21T07:40:37.747Z,49.80
2023-03-21T07:43:04.364Z,49.78
2023-03-21T07:45:30.892Z,49.61
2023-03-21T07:47:57.451Z,49.49
2023-03-21T07:50:24.068Z,49.14
2023-03-21T07:52:50.663Z,49.14
2023-03-21T07:55:17.527Z,49.08
2023-03-21T07:57:44.289Z,48.86
2023-03-21T08:00:12.679Z,48.76
2023-03-21T08:02:39.850Z,48.81
2023-03-21T08:05:06.531Z,48.72
2023-03-21T08:07:33.027Z,48.90
2023-03-21T08:10:00.007Z,48.59
2023-03-21T08:12:26.588Z,48.48
2023-03-21T08:14:53.047Z,48.31
2023-03-21T08:17:19.575Z,48.28
2023-03-21T08:19:46.174Z,48.26
2023-03-21T08:22:12.654Z,47.94
2023-03-21T08:24:39.233Z,48.22
2023-03-21T08:27:06.016Z,47.93
2023-03-21T08:29:32.490Z,47.96
2023-03-21T08:31:59.042Z,48.21
2023-03-21T08:34:26.398Z,47.96
2023-03-21T08:36:52.981Z,47.70
2023-03-21T08:39:21.725Z,47.65
2023-03-21T08:41:48.449Z,47.86
2023-03-21T08:44:16.921Z,47.95
2023-03-21T08:46:43.536Z,47.90
2023-03-21T08:49:10.126Z,47.50
2023-03-21T08:51:37.705Z,47.54
2023-03-21T08:54:04.382Z,47.39
2023-03-21T08:56:31.207Z,47.45
2023-03-21T08:58:59.013Z,47.43
2023-03-21T09:01:26.333Z,47.40
2023-03-21T09:03:52.873Z,47.46
2023-03-21T09:06:19.387Z,47.20
2023-03-21T09:08:46.361Z,47.24
2023-03-21T09:11:14.336Z,46.80
2023-03-21T09:13:40.903Z,47.26
2023-03-21T09:16:08.030Z,47.38
2023-03-21T09:19:00.935Z,46.51
2023-03-21T09:21:28.334Z,47.12
2023-03-21T09:23:56.519Z,46.68
2023-03-21T09:26:25.040Z,46.68
2023-03-21T09:28:53.141Z,46.54
2023-03-21T09:31:22.822Z,46.92
2023-03-21T09:33:51.015Z,46.67
2023-03-21T09:36:20.845Z,46.36
2023-03-21T09:38:49.261Z,46.16
2023-03-21T09:41:36.860Z,45.86
2023-03-21T09:44:38.605Z,45.40
2023-03-21T09:47:10.658Z,45.77
2023-03-21T09:49:53.003Z,45.41
2023-03-21T09:52:28.981Z,45.34
2023-03-21T09:54:56.303Z,45.58
2023-03-21T09:57:32.536Z,45.47
2023-03-21T10:00:08.724Z,45.36
2023-03-21T10:02:45.543Z,45.57
2023-03-21T10:05:24.420Z,45.75
2023-03-21T10:08:04.450Z,45.99
2023-03-21T10:10:53.537Z,46.08
2023-03-21T10:13:25.449Z,45.84
2023-03-21T10:15:57.356Z,45.79
2023-03-21T10:18:27.638Z,45.73
2023-03-21T10:20:54.765Z,45.81
2023-03-21T10:23:27.656Z,45.58
2023-03-21T10:26:02.131Z,45.64
2023-03-21T10:28:42.382Z,45.74
2023-03-21T10:31:21.554Z,45.40
2023-03-21T10:33:50.159Z,45.73
2023-03-21T10:36:26.064Z,45.43
2023-03-21T10:38:56.192Z,45.58
2023-03-21T10:41:22.742Z,45.40
2023-03-21T10:44:11.915Z,45.07
2023-03-21T10:46:38.706Z,45.39
2023-03-21T10:49:08.021Z,44.98
2023-03-21T10:51:37.797Z,44.70
2023-03-21T10:54:18.397Z,44.76
2023-03-21T10:56:57.154Z,44.62
2023-03-21T10:59:26.863Z,44.88
2023-03-21T11:01:56.806Z,44.84
2023-03-21T11:04:29.236Z,44.74
2023-03-21T11:06:59.899Z,44.68
2023-03-21T11:09:50.058Z,45.05
2023-03-21T11:12:37.190Z,44.82
2023-03-21T11:15:26.288Z,44.84
2023-03-21T11:17:53.076Z,44.76
2023-03-21T11:20:20.326Z,44.74
2023-03-21T11:22:48.347Z,44.10
2023-03-21T11:25:23.751Z,43.89
2023-03-21T11:27:53.616Z,44.27
2023-03-21T11:30:23.974Z,44.25
2023-03-21T11:32:58.377Z,44.12
2023-03-21T11:35:38.460Z,43.99
2023-03-21T11:38:07.588Z,44.17
2023-03-21T11:40:36.291Z,44.07
2023-03-21T11:43:24.486Z,44.10
2023-03-21T11:46:05.831Z,44.22
2023-03-21T11:48:53.301Z,44.15
2023-03-21T11:51:28.614Z,44.33
2023-03-21T11:54:30.142Z,44.20
2023-03-21T11:57:26.539Z,44.15
2023-03-21T12:00:20.785Z,44.15
2023-03-21T12:02:56.382Z,44.26
2023-03-21T12:05:41.362Z,44.25
2023-03-21T12:08:29.336Z,44.09
2023-03-21T12:11:11.418Z,44.26
2023-03-21T12:13:45.619Z,43.94
2023-03-21T12:16:50.934Z,43.92
2023-03-21T12:19:23.577Z,43.41
2023-03-21T12:22:27.717Z,43.53
2023-03-21T12:24:56.282Z,43.42
2023-03-21T12:27:32.019Z,43.16
2023-03-21T12:30:31.266Z,43.21
2023-03-21T12:33:13.645Z,43.17
2023-03-21T12:36:05.642Z,43.43
2023-03-21T12:38:43.346Z,43.57
2023-03-21T12:41:23.314Z,43.33
2023-03-21T12:44:02.848Z,43.37
2023-03-21T12:46:39.438Z,43.45
2023-03-21T12:49:10.539Z,43.34
2023-03-21T12:51:42.003Z,43.29
2023-03-21T12:54:21.540Z,43.63
2023-03-21T12:57:11.618Z,43.75
2023-03-21T12:59:54.312Z,43.49
2023-03-21T13:02:43.143Z,43.79
2023-03-21T13:05:27.857Z,43.79
2023-03-21T13:08:06.592Z,43.40
2023-03-21T13:10:34.004Z,43.45
2023-03-21T13:13:03.567Z,43.37
2023-03-21T13:15:44.918Z,43.47
2023-03-21T13:18:19.737Z,43.80
2023-03-21T13:20:50.659Z,43.51
2023-03-21T13:23:21.186Z,43.84
2023-03-21T13:25:50.693Z,43.51
2023-03-21T13:28:25.913Z,43.56
2023-03-21T13:30:53.110Z,43.55
2023-03-21T13:33:29.606Z,43.21
2023-03-21T13:36:05.698Z,43.28
2023-03-21T13:38:34.318Z,43.07
2023-03-21T13:41:07.345Z,43.27
2023-03-21T13:44:05.889Z,43.38
2023-03-21T13:46:40.638Z,43.37
2023-03-21T13:49:32.348Z,43.40
2023-03-21T13:52:01.741Z,43.40
2023-03-21T13:54:45.712Z,43.46
2023-03-21T13:57:42.024Z,43.49
2023-03-21T14:00:43.857Z,43.63
2023-03-21T14:03:16.400Z,43.71
2023-03-21T14:05:49.898Z,43.76
2023-03-21T14:08:27.758Z,44.02
2023-03-21T14:11:07.326Z,43.78
2023-03-21T14:13:38.066Z,43.74
2023-03-21T14:16:17.093Z,44.09
2023-03-21T14:18:54.082Z,44.11
2023-03-21T14:21:25.129Z,44.24
2023-03-21T14:24:16.532Z,43.99
2023-03-21T14:27:01.982Z,44.11
2023-03-21T14:29:33.590Z,44.03
2023-03-21T14:32:01.322Z,44.00
2023-03-21T14:34:31.595Z,44.09
2023-03-21T14:36:59.108Z,44.17
2023-03-21T14:39:31.335Z,44.08
2023-03-21T14:42:13.656Z,44.09
2023-03-21T14:44:54.497Z,44.19
2023-03-21T14:47:27.949Z,44.23
2023-03-21T14:49:54.839Z,43.94
2023-03-21T14:52:32.048Z,44.03
2023-03-21T14:55:00.294Z,44.15
2023-03-21T14:57:30.963Z,44.10
2023-03-21T15:00:01.992Z,44.22
2023-03-21T15:02:34.510Z,44.51
2023-03-21T15:05:32.639Z,44.36
2023-03-21T15:08:01.981Z,44.22
2023-03-21T15:10:31.103Z,44.45
2023-03-21T15:13:00.325Z,44.53
2023-03-21T15:15:29.243Z,44.44
2023-03-21T15:18:01.899Z,44.27
2023-03-21T15:20:33.757Z,44.51
2023-03-21T15:23:13.206Z,44.48
2023-03-21T15:25:40.612Z,44.71
2023-03-21T15:28:07.441Z,44.81
2023-03-21T15:30:34.638Z,44.51
2023-03-21T15:33:09.961Z,44.75
2023-03-21T15:35:43.509Z,44.75
2023-03-21T15:38:21.715Z,44.67
2023-03-21T15:40:48.276Z,44.83
2023-03-21T15:43:17.464Z,44.82
2023-03-21T15:45:55.034Z,44.79
2023-03-21T15:48:26.768Z,44.90
2023-03-21T15:51:05.380Z,44.97
2023-03-21T15:53:34.706Z,44.86
2023-03-21T15:56:03.089Z,45.11
2023-03-21T15:58:43.975Z,44.93
2023-03-21T16:01:20.082Z,45.17
2023-03-21T16:03:49.372Z,44.93
2023-03-21T16:06:20.862Z,45.01
2023-03-21T16:08:47.341Z,45.29
2023-03-21T16:11:24.605Z,45.14
2023-03-21T16:13:52.646Z,45.45
2023-03-21T16:16:28.583Z,45.24
2023-03-21T16:18:56.890Z,45.22
2023-03-21T16:21:26.840Z,45.15
2023-03-21T16:23:53.595Z,45.07
2023-03-21T16:26:26.494Z,45.19
2023-03-21T16:28:53.556Z,45.14
2023-03-21T16:31:22.408Z,45.15
2023-03-21T16:33:49.747Z,45.11
2023-03-21T16:36:19.690Z,45.15
2023-03-21T16:38:47.618Z,45.12
2023-03-21T16:41:14.367Z,45.02
2023-03-21T16:43:43.302Z,45.23
2023-03-21T16:46:14.828Z,45.24
2023-03-21T16:48:43.253Z,45.55
2023-03-21T16:51:14.885Z,45.26
2023-03-21T16:53:41.594Z,45.58
2023-03-21T16:56:21.629Z,45.39
2023-03-21T16:58:48.023Z,45.39
2023-03-21T17:01:21.507Z,45.54
2023-03-21T17:03:48.672Z,45.61
2023-03-21T17:06:18.623Z,45.36
2023-03-21T17:08:45.717Z,45.42
2023-03-21T17:11:16.430Z,45.50
2023-03-21T17:13:44.201Z,45.55
2023-03-21T17:16:17.140Z,45.42
2023-03-21T17:18:43.819Z,45.37
2023-03-21T17:21:15.987Z,45.42
2023-03-21T17:23:43.516Z,45.73
2023-03-21T17:26:13.277Z,45.43
2023-03-21T17:28:41.382Z,45.48
2023-03-21T17:31:14.631Z,45.58
2023-03-21T17:33:41.803Z,45.63
2023-03-21T17:36:34.298Z,45.84
2023-03-21T17:39:01.188Z,45.62
2023-03-21T17:41:27.819Z,45.71
2023-03-21T17:43:55.795Z,45.91
2023-03-21T17:46:24.974Z,45.90
2023-03-21T17:48:51.999Z,45.95
2023-03-21T17:51:19.185Z,45.95
2023-03-21T17:53:48.429Z,46.14
2023-03-21T17:56:16.057Z,46.25
2023-03-21T17:58:42.890Z,46.47
2023-03-21T18:01:09.454Z,46.26
2023-03-21T18:03:36.007Z,46.48
2023-03-21T18:06:03.815Z,46.31
2023-03-21T18:08:30.303Z,46.40
2023-03-21T18:10:56.807Z,46.94
2023-03-21T18:13:23.646Z,47.02
2023-03-21T18:15:50.612Z,46.88
2023-03-21T18:18:17.286Z,46.91
2023-03-21T18:20:52.144Z,47.12
2023-03-21T18:23:19.452Z,47.00
2023-03-21T18:25:46.053Z,47.26
2023-03-21T18:28:13.214Z,47.44
2023-03-21T18:31:07.119Z,47.63
2023-03-21T18:33:28.506Z,47.39
2023-03-21T18:35:59.462Z,47.50
2023-03-21T18:38:27.755Z,47.30
2023-03-21T18:40:54.347Z,47.92
2023-03-21T18:44:00.863Z,47.71
2023-03-21T18:46:08.307Z,47.81
2023-03-21T18:48:35.669Z,47.78
2023-03-21T18:51:02.815Z,47.93
2023-03-21T18:53:30.031Z,48.07
2023-03-21T18:55:57.478Z,48.00
2023-03-21T18:58:24.812Z,48.12
2023-03-21T19:00:53.489Z,48.22
2023-03-21T19:03:34.196Z,48.29
2023-03-21T19:06:03.827Z,48.38
2023-03-21T19:08:31.078Z,48.44
2023-03-21T19:11:00.195Z,48.38
2023-03-21T19:13:30.030Z,48.49
2023-03-21T19:15:57.142Z,48.56
2023-03-21T19:18:41.596Z,48.56
2023-03-21T19:21:10.425Z,48.71
2023-03-21T19:24:11.688Z,48.62
2023-03-21T19:26:27.515Z,48.33
2023-03-21T19:28:54.811Z,48.61
2023-03-21T19:31:22.286Z,48.55
2023-03-21T19:33:48.860Z,48.55
2023-03-21T19:36:21.938Z,48.47
2023-03-21T19:38:49.097Z,48.38
2023-03-21T19:41:16.338Z,48.36
2023-03-21T19:43:53.264Z,48.72
2023-03-21T19:46:23.104Z,48.53
2023-03-21T19:48:50.201Z,48.66
2023-03-21T19:51:33.183Z,48.41
2023-03-21T19:54:01.217Z,48.47
2023-03-21T19:56:28.012Z,48.68
2023-03-21T19:58:57.492Z,48.79
2023-03-21T20:01:24.795Z,48.73
2023-03-21T20:03:52.382Z,48.85
2023-03-21T20:06:19.432Z,49.10
2023-03-21T20:11:33.930Z,48.94
2023-03-21T20:14:03.065Z,48.85
2023-03-21T20:16:35.438Z,49.21
2023-03-21T20:19:03.687Z,49.40
2023-03-21T20:21:36.582Z,49.18
2023-03-21T20:24:11.401Z,49.03
2023-03-21T20:26:38.050Z,49.29
2023-03-21T20:29:48.416Z,49.18
2023-03-21T20:31:53.211Z,49.30
2023-03-21T20:34:21.136Z,49.31
2023-03-21T20:36:48.201Z,49.17
2023-03-21T20:39:15.347Z,49.57
2023-03-21T20:41:41.904Z,49.62
2023-03-21T20:46:55.057Z,49.58
2023-03-21T20:49:23.022Z,49.47
2023-03-21T20:54:37.174Z,49.74
2023-03-21T20:57:04.886Z,49.46
2023-03-21T20:59:31.417Z,49.32
2023-03-21T21:01:58.421Z,50.00
2023-03-21T21:04:48.212Z,49.88
2023-03-21T21:07:20.974Z,49.75
2023-03-21T21:09:48.569Z,49.72
2023-03-21T21:12:16.567Z,49.97
2023-03-21T21:14:43.747Z,49.98
2023-03-21T21:17:28.288Z,49.85
2023-03-21T21:19:56.980Z,49.88
2023-03-21T21:22:23.512Z,49.91
2023-03-21T21:24:50.063Z,49.95
2023-03-21T21:27:16.655Z,49.91
2023-03-21T21:29:47.587Z,50.02
2023-03-21T21:32:16.857Z,50.00
2023-03-21T21:34:43.397Z,49.80
2023-03-21T21:37:09.899Z,50.05
2023-03-21T21:39:37.981Z,50.09
2023-03-21T21:42:05.231Z,50.06
2023-03-21T21:44:31.867Z,50.05
2023-03-21T21:46:58.638Z,50.03
2023-03-21T21:49:25.374Z,50.34
2023-03-21T21:51:51.856Z,50.05
2023-03-21T21:54:18.639Z,50.18
2023-03-21T21:56:48.343Z,49.96
2023-03-21T21:59:18.601Z,49.83
2023-03-21T22:01:46.633Z,50.03
2023-03-21T22:04:14.534Z,49.68
2023-03-21T22:06:42.219Z,50.15
2023-03-21T22:09:09.151Z,50.10
2023-03-21T22:11:35.892Z,49.53
2023-03-21T22:14:03.073Z,49.83
2023-03-21T22:16:29.722Z,49.94
2023-03-21T22:18:56.316Z,49.65
2023-03-21T22:21:23.021Z,49.94
2023-03-21T22:23:49.554Z,50.08
2023-03-21T22:26:16.377Z,49.92
2023-03-21T22:28:43.611Z,50.07
2023-03-21T22:31:13.754Z,50.10
2023-03-21T22:33:40.285Z,49.90
2023-03-21T22:36:07.457Z,50.13
2023-03-21T22:38:34.654Z,50.00
2023-03-21T22:41:03.628Z,50.14
2023-03-21T22:43:33.955Z,50.19
2023-03-21T22:46:02.204Z,50.22
2023-03-21T22:48:30.236Z,50.15
2023-03-21T22:50:58.534Z,50.14
2023-03-21T22:53:25.332Z,50.42
2023-03-21T22:55:51.838Z,50.46
2023-03-21T22:58:18.362Z,50.57
2023-03-21T23:00:44.934Z,50.44
2023-03-21T23:03:12.970Z,50.37
2023-03-21T23:05:42.712Z,50.76
2023-03-21T23:08:09.567Z,50.56
2023-03-21T23:10:40.284Z,50.59
2023-03-21T23:13:07.140Z,50.52
2023-03-21T23:15:33.730Z,50.41
2023-03-21T23:18:00.268Z,50.28
2023-03-21T23:20:26.826Z,50.13
2023-03-21T23:22:53.360Z,50.40
2023-03-21T23:25:20.549Z,50.54
2023-03-21T23:27:47.511Z,50.33
2023-03-21T23:30:14.701Z,50.35
2023-03-21T23:32:41.274Z,50.39
2023-03-21T23:35:08.295Z,50.41
2023-03-21T23:37:34.801Z,50.58
2023-03-21T23:40:01.451Z,50.53
2023-03-21T23:42:29.316Z,50.63
2023-03-21T23:44:55.778Z,50.36
2023-03-21T23:47:22.273Z,50.43
2023-03-21T23:49:49.965Z,50.47
2023-03-21T23:52:16.680Z,50.50
2023-03-21T23:54:43.328Z,50.48
2023-03-21T23:57:10.935Z,50.46
2023-03-21T23:59:37.431Z,50.29
